Time;durP1;ratioP1;P1;durP2;ratioP2;P2;SDS_P1;SDS_P2;PMS_P1;PMS_P2;Temp;Humidity;BMP_temperature;BMP_pressure;BME280_temperature;BME280_humidity;BME280_pressure;Samples;Min_cycle;Max_cycle;Signal;HPM_P1;HPM_P2
2021/05/09 00:03:41;;;;;;;42.70;26.30;;;;;;;2.57;72.48;100188.25;233648;1177;117428;-71
2021/05/09 00:08:45;;;;;;;37.50;21.60;;;;;;;2.56;72.45;100185.79;234566;1173;115991;-70
2021/05/09 00:13:50;;;;;;;39.35;22.90;;;;;;;2.52;71.91;100173.97;234354;1177;115048;-70
2021/05/09 00:18:54;;;;;;;35.50;23.50;;;;;;;2.59;71.85;100185.45;234569;1177;114984;-70
2021/05/09 00:23:57;;;;;;;39.95;24.25;;;;;;;2.68;72.45;100181.80;234650;1177;115882;-72
2021/05/09 00:29:00;;;;;;;34.20;23.30;;;;;;;2.79;73.17;100185.83;234510;1177;116000;-72
2021/05/09 00:34:03;;;;;;;32.30;20.05;;;;;;;2.83;72.37;100187.95;233939;1177;116271;-70
2021/05/09 00:39:06;;;;;;;19.87;14.73;;;;;;;2.80;72.74;100183.02;232085;1177;115682;-71
2021/05/09 00:44:10;;;;;;;35.80;19.30;;;;;;;2.76;73.03;100175.64;232420;1177;116032;-71
2021/05/09 00:49:13;;;;;;;20.70;15.20;;;;;;;2.79;72.63;100170.85;232854;1177;115719;-70
2021/05/09 00:54:21;;;;;;;31.70;22.60;;;;;;;2.86;73.05;100176.25;233020;1177;116455;-70
2021/05/09 00:59:34;;;;;;;29.73;21.23;;;;;;;2.99;72.32;100177.33;232387;1177;116439;-70
2021/05/09 01:04:37;;;;;;;32.48;18.83;;;;;;;3.09;72.20;100166.54;232786;1177;115333;-71
2021/05/09 01:09:42;;;;;;;24.00;14.85;;;;;;;3.12;71.97;100158.28;231951;1177;115270;-69
2021/05/09 01:14:45;;;;;;;18.70;7.95;;;;;;;3.06;72.61;100155.56;232425;1177;115398;-67
2021/05/09 01:19:49;;;;;;;27.60;17.25;;;;;;;3.05;72.45;100146.84;232384;1177;116312;-72
2021/05/09 01:24:52;;;;;;;26.93;20.10;;;;;;;3.03;72.23;100146.20;232194;1177;116162;-68
2021/05/09 01:29:54;;;;;;;25.10;18.20;;;;;;;3.03;72.66;100162.00;232388;1177;116389;-69
2021/05/09 01:34:57;;;;;;;30.50;17.00;;;;;;;3.01;72.32;100156.91;232692;1177;115659;-69
2021/05/09 01:40:00;;;;;;;14.33;11.90;;;;;;;3.00;73.19;100157.90;232242;1177;115542;-69
2021/05/09 01:45:05;;;;;;;12.25;8.80;;;;;;;2.96;72.99;100156.61;232670;1177;115755;-69
2021/05/09 01:50:13;;;;;;;20.90;17.80;;;;;;;2.93;72.37;100156.95;233119;1177;115785;-70
2021/05/09 01:55:18;;;;;;;;;;;;;;;2.97;72.04;100154.79;232082;1177;116376;-68
2021/05/09 02:00:22;;;;;;;17.80;14.50;;;;;;;3.00;72.42;100155.27;234305;1178;103086;-68
2021/05/09 02:05:26;;;;;;;28.08;16.45;;;;;;;3.02;72.79;100161.17;234085;1178;116218;-69
2021/05/09 02:10:30;;;;;;;19.83;13.10;;;;;;;3.10;72.47;100154.19;233442;1177;117538;-68
2021/05/09 02:15:34;;;;;;;26.10;18.45;;;;;;;3.18;72.52;100149.69;233696;1178;115721;-68
2021/05/09 02:20:38;;;;;;;25.63;17.30;;;;;;;3.33;72.62;100160.28;234462;1177;116241;-68
2021/05/09 02:25:42;;;;;;;22.57;15.43;;;;;;;3.49;72.34;100154.04;234291;1177;117262;-69
2021/05/09 02:30:46;;;;;;;24.50;12.73;;;;;;;3.62;72.33;100149.81;233280;1177;117142;-68
2021/05/09 02:35:51;;;;;;;18.47;12.77;;;;;;;3.70;72.99;100141.80;233560;1177;115974;-68
2021/05/09 02:40:55;;;;;;;22.80;14.70;;;;;;;3.84;71.96;100147.27;232320;1170;116187;-67
2021/05/09 02:45:58;;;;;;;19.35;13.30;;;;;;;3.96;72.04;100140.56;233207;1177;117210;-68
2021/05/09 02:51:02;;;;;;;15.95;11.40;;;;;;;4.07;71.66;100140.08;232599;1177;117542;-69
2021/05/09 02:56:06;;;;;;;17.85;10.40;;;;;;;4.14;72.57;100134.91;232329;1177;116017;-69
2021/05/09 03:01:11;;;;;;;18.37;12.47;;;;;;;4.21;72.28;100136.63;232784;1177;116227;-69
2021/05/09 03:06:15;;;;;;;15.65;11.40;;;;;;;4.27;71.40;100125.34;232476;1177;116824;-68
2021/05/09 03:11:20;;;;;;;18.97;13.77;;;;;;;4.40;71.40;100122.03;232156;1177;116927;-68
2021/05/09 03:16:24;;;;;;;16.35;11.63;;;;;;;4.50;71.32;100124.38;232008;1179;116345;-68
2021/05/09 03:21:28;;;;;;;16.00;10.53;;;;;;;4.54;70.98;100115.91;232196;1179;118549;-68
2021/05/09 03:26:32;;;;;;;13.68;10.83;;;;;;;4.60;71.51;100127.52;232602;1178;117608;-67
2021/05/09 03:31:35;;;;;;;9.40;7.80;;;;;;;4.67;71.48;100117.86;232386;1177;116816;-66
2021/05/09 03:36:38;;;;;;;16.20;13.20;;;;;;;4.81;71.07;100113.55;233219;1177;116178;-68
2021/05/09 03:41:41;;;;;;;15.25;9.55;;;;;;;4.94;70.71;100114.48;232524;1177;116800;-67
2021/05/09 03:46:45;;;;;;;10.27;9.27;;;;;;;5.12;70.83;100114.05;232530;1177;116001;-67
2021/05/09 03:51:49;;;;;;;11.80;9.13;;;;;;;5.30;70.35;100116.21;233807;1178;116541;-67
2021/05/09 03:56:53;;;;;;;17.80;13.00;;;;;;;5.55;70.02;100114.77;233207;1177;117167;-66
2021/05/09 04:01:57;;;;;;;19.93;10.83;;;;;;;5.86;69.33;100116.19;234025;1177;117275;-67
2021/05/09 04:07:02;;;;;;;17.00;11.57;;;;;;;5.94;69.45;100110.78;234437;1177;116920;-66
2021/05/09 04:12:06;;;;;;;7.60;6.87;;;;;;;6.06;68.87;100106.58;234476;1178;117064;-68
2021/05/09 04:17:09;;;;;;;14.80;9.10;;;;;;;7.02;68.15;100104.63;234744;1177;115793;-68
2021/05/09 04:22:13;;;;;;;13.40;11.10;;;;;;;6.98;67.71;100098.91;234148;1177;116736;-67
2021/05/09 04:27:17;;;;;;;13.60;10.30;;;;;;;7.62;66.70;100097.47;232086;1177;117875;-67
2021/05/09 04:32:22;;;;;;;10.73;9.50;;;;;;;8.96;65.13;100097.53;233114;1180;116140;-68
2021/05/09 04:37:27;;;;;;;8.90;8.03;;;;;;;9.83;63.97;100096.55;233509;1177;116033;-68
2021/05/09 04:42:31;;;;;;;10.20;7.70;;;;;;;10.60;63.05;100099.58;232382;1177;116326;-67
2021/05/09 04:47:35;;;;;;;10.33;8.53;;;;;;;11.04;61.41;100092.97;232537;1179;116783;-68
2021/05/09 04:52:40;;;;;;;9.10;7.93;;;;;;;10.89;61.00;100085.41;232663;1174;116863;-68
2021/05/09 04:57:45;;;;;;;10.70;8.73;;;;;;;10.60;60.52;100087.06;232005;1177;116387;-68
2021/05/09 05:02:48;;;;;;;13.63;7.70;;;;;;;10.36;60.60;100086.16;232144;1178;116484;-68
2021/05/09 05:07:53;;;;;;;8.33;6.83;;;;;;;11.56;58.94;100087.83;232445;1178;118039;-66
2021/05/09 05:12:56;;;;;;;12.65;8.65;;;;;;;15.91;54.62;100084.38;232048;1177;116450;-67
2021/05/09 05:18:00;;;;;;;12.23;8.37;;;;;;;19.55;50.47;100075.84;232456;1177;115831;-67
2021/05/09 05:23:05;;;;;;;8.75;7.68;;;;;;;22.15;47.09;100076.29;232689;1177;116134;-66
2021/05/09 05:28:08;;;;;;;11.10;8.43;;;;;;;23.97;43.87;100072.99;232410;1177;115766;-66
2021/05/09 05:33:33;;;;;;;9.83;8.73;;;;;;;25.56;42.28;100075.95;232729;1174;115508;-66
2021/05/09 05:38:39;;;;;;;10.90;8.55;;;;;;;25.99;40.62;100084.78;232229;1177;116012;-67
2021/05/09 05:43:42;;;;;;;9.03;8.13;;;;;;;26.65;39.07;100084.24;232364;1172;115747;-67
2021/05/09 05:48:45;;;;;;;10.00;7.73;;;;;;;26.96;37.17;100072.91;232492;1177;116518;-67
2021/05/09 05:53:49;;;;;;;9.20;8.23;;;;;;;25.06;37.22;100068.37;232976;1177;115499;-69
2021/05/09 05:58:53;;;;;;;8.53;7.70;;;;;;;23.87;37.41;100073.27;232315;1177;115554;-67
2021/05/09 06:03:57;;;;;;;7.40;6.15;;;;;;;23.16;37.97;100079.45;232020;1177;115564;-67
2021/05/09 06:09:03;;;;;;;9.70;8.70;;;;;;;22.00;38.28;100080.10;233519;1177;115506;-68
2021/05/09 06:14:07;;;;;;;11.70;7.55;;;;;;;20.79;38.24;100058.62;234593;1177;116145;-68
2021/05/09 06:19:26;;;;;;;9.90;7.87;;;;;;;20.49;38.73;100073.38;234589;1177;116063;-66
2021/05/09 06:24:29;;;;;;;8.27;6.77;;;;;;;19.64;39.37;100071.41;234493;1170;114727;-67
2021/05/09 06:29:31;;;;;;;9.60;6.63;;;;;;;18.98;40.14;100077.36;234592;1177;115637;-69
2021/05/09 06:34:35;;;;;;;9.28;6.28;;;;;;;18.32;40.81;100075.06;234201;1177;115970;-67
2021/05/09 06:39:40;;;;;;;7.17;5.60;;;;;;;18.11;41.45;100074.33;232590;1177;115806;-67
2021/05/09 06:44:47;;;;;;;5.40;4.35;;;;;;;17.93;41.54;100057.95;233186;1177;115154;-65
2021/05/09 06:49:51;;;;;;;6.13;5.53;;;;;;;17.92;41.68;100059.05;233675;1177;115406;-66
2021/05/09 06:54:55;;;;;;;8.00;5.55;;;;;;;17.98;42.28;100057.95;233274;1177;115150;-66
2021/05/09 06:59:58;;;;;;;8.20;5.10;;;;;;;18.99;41.84;100062.77;231805;1177;116122;-66
2021/05/09 07:05:01;;;;;;;10.98;6.60;;;;;;;20.88;41.48;100048.70;232564;1177;115332;-68
2021/05/09 07:10:04;;;;;;;8.88;6.15;;;;;;;21.54;40.99;100047.60;232371;1177;116649;-67
2021/05/09 07:15:08;;;;;;;9.18;5.48;;;;;;;21.61;40.33;100039.88;232595;1177;116127;-68
2021/05/09 07:20:14;;;;;;;7.00;5.40;;;;;;;21.40;39.87;100038.66;232211;1177;116432;-69
2021/05/09 07:25:17;;;;;;;4.90;4.43;;;;;;;21.06;39.85;100047.08;232740;1177;116425;-69
2021/05/09 07:30:21;;;;;;;6.10;4.47;;;;;;;20.40;39.70;100046.17;232575;1177;117862;-69
2021/05/09 07:35:23;;;;;;;8.00;5.80;;;;;;;20.14;40.44;100052.99;232255;1177;116429;-66
2021/05/09 07:40:27;;;;;;;8.68;4.63;;;;;;;20.39;40.69;100041.05;232092;1177;116820;-67
2021/05/09 07:45:30;;;;;;;4.20;3.63;;;;;;;20.29;39.85;100031.13;232943;1178;116430;-67
2021/05/09 07:50:33;;;;;;;5.50;4.17;;;;;;;20.48;40.25;100029.24;232346;1177;116782;-66
2021/05/09 07:55:36;;;;;;;4.63;3.40;;;;;;;20.75;40.50;100031.30;233619;1177;117067;-66
2021/05/09 08:00:39;;;;;;;6.17;3.77;;;;;;;20.85;40.41;100028.41;233110;1177;115938;-68
2021/05/09 08:05:45;;;;;;;7.10;4.45;;;;;;;20.94;40.35;100025.84;233267;1177;115615;-67
2021/05/09 08:10:49;;;;;;;4.10;3.80;;;;;;;20.95;40.60;100015.81;233950;1177;115054;-68
2021/05/09 08:15:52;;;;;;;6.05;3.75;;;;;;;20.92;40.63;100021.81;233066;1177;115281;-68
2021/05/09 08:20:58;;;;;;;3.50;3.15;;;;;;;20.87;40.49;100019.19;234192;1177;115643;-68
2021/05/09 08:26:01;;;;;;;4.60;2.73;;;;;;;20.99;40.76;100009.50;233628;1177;115540;-68
2021/05/09 08:31:04;;;;;;;5.83;3.53;;;;;;;21.02;41.08;100011.63;234501;1177;114964;-69
2021/05/09 08:36:07;;;;;;;4.20;3.45;;;;;;;21.10;41.36;100007.41;234040;1177;116024;-69
2021/05/09 08:41:10;;;;;;;9.10;4.00;;;;;;;21.18;40.36;100007.53;233975;1177;115344;-69
2021/05/09 08:46:14;;;;;;;2.00;1.90;;;;;;;21.08;41.22;100010.44;234477;1177;115455;-70
2021/05/09 08:51:17;;;;;;;3.68;3.38;;;;;;;21.13;40.85;100010.33;233355;1177;115184;-67
2021/05/09 08:56:21;;;;;;;4.37;3.50;;;;;;;21.09;40.66;100012.05;232314;1177;115825;-69
2021/05/09 09:01:29;;;;;;;3.75;2.38;;;;;;;21.03;40.17;100007.81;232732;1177;116453;-67
2021/05/09 09:06:40;;;;;;;3.80;3.43;;;;;;;20.82;40.43;100006.52;232174;1177;116102;-69
2021/05/09 09:11:49;;;;;;;3.73;3.30;;;;;;;20.85;40.41;100008.64;232854;1177;115746;-67
2021/05/09 09:17:12;;;;;;;5.35;2.88;;;;;;;20.86;40.64;100004.83;232914;1177;117056;-67
2021/05/09 09:22:17;;;;;;;3.23;2.45;;;;;;;21.06;40.56;100004.52;232871;1177;116033;-66
2021/05/09 09:27:28;;;;;;;3.93;2.37;;;;;;;21.20;40.01;100007.23;232122;1177;116037;-67
2021/05/09 09:32:31;;;;;;;4.25;3.33;;;;;;;21.47;40.59;99999.16;232535;1176;115700;-67
2021/05/09 09:37:35;;;;;;;5.23;4.07;;;;;;;21.70;39.93;100000.10;232015;1179;115813;-69
2021/05/09 09:42:43;;;;;;;2.37;1.93;;;;;;;21.63;39.74;100002.41;232202;1177;115622;-68
2021/05/09 09:48:05;;;;;;;4.95;3.18;;;;;;;21.68;39.47;100013.16;232317;1177;115776;-66
2021/05/09 09:53:28;;;;;;;3.95;2.88;;;;;;;21.67;39.14;100003.41;232097;1177;116037;-69
2021/05/09 09:58:41;;;;;;;5.43;3.00;;;;;;;21.73;38.96;99994.04;233193;1180;115874;-70
2021/05/09 10:03:46;;;;;;;1.90;1.75;;;;;;;21.82;39.36;99992.23;232380;1177;115464;-68
2021/05/09 10:08:51;;;;;;;3.18;2.80;;;;;;;21.88;38.90;99989.42;233546;1177;115218;-68
2021/05/09 10:13:54;;;;;;;2.87;2.33;;;;;;;21.83;38.55;99976.76;232432;1177;116023;-67
2021/05/09 10:19:00;;;;;;;4.60;3.27;;;;;;;21.90;38.95;99970.92;232924;1177;115778;-66
2021/05/09 10:24:17;;;;;;;3.13;2.83;;;;;;;21.96;39.50;99964.29;233680;1177;116064;-71
2021/05/09 10:34:55;;;;;;;2.73;2.17;;;;;;;22.03;38.25;99965.48;234267;1179;115243;-69
2021/05/09 10:40:32;;;;;;;1.37;1.07;;;;;;;22.07;39.19;99955.63;234534;1177;114873;-66
2021/05/09 10:45:40;;;;;;;3.15;2.40;;;;;;;22.10;38.98;99957.73;234562;1177;115473;-67
2021/05/09 10:50:52;;;;;;;3.30;2.67;;;;;;;22.26;38.72;99954.69;232454;1177;115499;-67
2021/05/09 10:55:56;;;;;;;2.63;2.43;;;;;;;22.28;38.52;99952.47;233226;1177;115858;-69
2021/05/09 11:00:59;;;;;;;5.30;2.10;;;;;;;22.39;37.83;99951.11;233465;1177;114875;-68
2021/05/09 11:06:05;;;;;;;1.65;1.55;;;;;;;22.50;36.64;99944.33;233239;1177;115932;-67
2021/05/09 11:11:15;;;;;;;3.55;2.05;;;;;;;22.44;35.98;99948.27;233279;1177;116123;-67
2021/05/09 11:16:19;;;;;;;2.95;1.90;;;;;;;22.50;36.18;99944.33;232846;1177;115130;-67
2021/05/09 11:21:23;;;;;;;1.85;1.75;;;;;;;22.47;35.63;99936.80;232597;1177;114852;-68
2021/05/09 11:26:28;;;;;;;1.90;1.75;;;;;;;22.47;36.23;99926.73;232509;1177;115357;-69
2021/05/09 11:31:33;;;;;;;0.60;0.60;;;;;;;22.56;35.55;99923.28;232450;1170;115400;-68
2021/05/09 11:36:39;;;;;;;1.20;1.10;;;;;;;22.50;35.84;99917.97;232031;1177;116211;-68
2021/05/09 11:41:54;;;;;;;2.37;2.17;;;;;;;22.46;36.12;99914.27;232266;1177;115749;-68
2021/05/09 11:46:57;;;;;;;;;;;;;;;22.44;36.26;99918.39;232089;1174;115448;-67
2021/05/09 11:52:07;;;;;;;3.05;2.20;;;;;;;22.47;35.81;99905.00;233688;1177;103082;-67
2021/05/09 11:57:10;;;;;;;1.60;1.50;;;;;;;22.40;35.29;99910.06;232878;1177;115505;-67
2021/05/09 12:02:16;;;;;;;2.65;1.60;;;;;;;22.36;35.54;99898.20;233407;1177;115175;-67
2021/05/09 12:07:25;;;;;;;2.38;1.73;;;;;;;22.34;35.36;99886.84;232002;1177;115939;-67
2021/05/09 12:12:31;;;;;;;2.65;2.10;;;;;;;22.33;35.17;99877.09;232718;1177;115968;-69
2021/05/09 12:17:34;;;;;;;;;;;;;;;22.38;35.63;99878.88;233805;1174;115932;-68
2021/05/09 12:22:39;;;;;;;2.30;1.60;;;;;;;22.46;35.38;99875.43;234427;1177;103928;-69
2021/05/09 12:27:46;;;;;;;2.07;1.30;;;;;;;22.46;34.66;99870.80;233911;1177;115770;-70
2021/05/09 12:32:48;;;;;;;3.07;2.73;;;;;;;22.45;35.18;99866.48;234114;1177;115032;-70
2021/05/09 12:37:53;;;;;;;4.65;2.43;;;;;;;22.44;35.11;99867.59;234511;1177;115030;-72
2021/05/09 12:43:05;;;;;;;2.63;2.00;;;;;;;22.53;35.20;99855.98;234503;1177;115407;-71
2021/05/09 12:48:34;;;;;;;2.03;1.83;;;;;;;22.55;35.12;99854.56;233706;1177;116039;-71
2021/05/09 12:53:55;;;;;;;2.45;1.65;;;;;;;22.58;34.82;99850.42;233256;1177;115541;-70
2021/05/09 12:59:11;;;;;;;2.65;1.45;;;;;;;22.61;34.80;99849.80;233585;1177;115824;-71
2021/05/09 13:04:31;;;;;;;1.63;1.53;;;;;;;22.55;34.63;99832.83;232859;1177;115463;-70
2021/05/09 13:09:34;;;;;;;2.37;2.07;;;;;;;22.48;34.49;99822.40;232128;1177;115638;-72
2021/05/09 13:14:40;;;;;;;4.78;2.45;;;;;;;22.40;34.63;99820.42;233024;1177;115554;-70
2021/05/09 13:19:43;;;;;;;1.45;1.43;;;;;;;22.42;34.55;99811.97;232135;1177;115665;-68
2021/05/09 13:24:48;;;;;;;1.57;1.47;;;;;;;22.45;34.68;99809.44;232744;1177;115645;-69
2021/05/09 13:29:51;;;;;;;3.45;2.05;;;;;;;22.50;34.61;99803.88;232260;1177;115223;-67
2021/05/09 13:34:54;;;;;;;1.47;1.37;;;;;;;22.42;35.14;99790.24;232407;1179;117131;-67
2021/05/09 13:39:57;;;;;;;2.00;1.25;;;;;;;22.35;34.83;99787.16;232430;1177;115745;-67
2021/05/09 13:45:00;;;;;;;2.15;1.40;;;;;;;22.35;34.90;99787.16;232074;1177;116514;-69
2021/05/09 13:50:04;;;;;;;4.48;1.00;;;;;;;22.25;35.04;99782.02;232387;1177;116195;-68
2021/05/09 13:55:06;;;;;;;2.07;1.87;;;;;;;22.19;35.60;99778.62;232270;1177;116376;-67
2021/05/09 14:00:10;;;;;;;2.00;1.80;;;;;;;22.22;35.77;99771.77;232288;1177;115935;-67
2021/05/09 14:12:49;;;;;;;9.53;2.10;;;;;;;22.09;35.27;99768.81;232036;1177;115345;-67
2021/05/09 14:17:53;;;;;;;2.40;1.30;;;;;;;21.99;35.12;99768.25;232820;1177;138875;-67
2021/05/09 14:22:57;;;;;;;2.53;1.83;;;;;;;21.97;35.13;99767.76;233164;1177;114651;-67
2021/05/09 14:28:00;;;;;;;1.60;1.50;;;;;;;22.04;35.72;99751.84;233179;1177;116327;-69
2021/05/09 14:33:04;;;;;;;1.30;1.20;;;;;;;22.05;35.57;99740.67;233213;1177;115696;-66
2021/05/09 14:38:07;;;;;;;3.43;1.30;;;;;;;22.04;35.75;99740.98;233128;1171;115467;-66
2021/05/09 14:43:11;;;;;;;3.13;1.73;;;;;;;22.07;35.84;99734.94;233475;1177;115329;-66
2021/05/09 14:48:15;;;;;;;1.85;1.60;;;;;;;22.10;35.39;99731.61;234555;1177;115404;-69
2021/05/09 14:53:18;;;;;;;2.18;1.73;;;;;;;22.10;36.09;99726.98;234591;1177;114856;-67
2021/05/09 14:58:22;;;;;;;1.40;1.05;;;;;;;22.04;36.05;99727.41;234617;1177;116617;-67
2021/05/09 15:03:25;;;;;;;2.80;1.45;;;;;;;22.03;36.03;99725.81;234618;1177;115421;-66
2021/05/09 15:08:28;;;;;;;2.03;1.00;;;;;;;22.04;36.02;99719.27;234162;1177;117368;-68
2021/05/09 15:13:32;;;;;;;1.10;1.10;;;;;;;22.02;36.01;99713.34;233640;1177;117022;-67
2021/05/09 15:18:35;;;;;;;2.85;1.18;;;;;;;22.01;35.80;99709.06;233454;1177;115913;-66
2021/05/09 15:23:38;;;;;;;0.93;0.77;;;;;;;21.98;36.13;99696.08;233566;1177;116367;-66
2021/05/09 15:28:42;;;;;;;1.70;1.10;;;;;;;21.93;36.17;99698.92;233169;1177;115619;-66
2021/05/09 15:33:46;;;;;;;1.70;1.00;;;;;;;21.82;36.38;99688.31;232689;1177;115312;-69
2021/05/09 15:38:49;;;;;;;1.43;1.07;;;;;;;21.67;36.53;99679.77;233075;1177;115540;-69
2021/05/09 15:43:53;;;;;;;1.23;1.00;;;;;;;21.55;36.66;99683.03;232322;1177;115967;-68
2021/05/09 15:48:56;;;;;;;1.00;0.80;;;;;;;21.49;37.03;99671.50;232601;1177;116142;-67
2021/05/09 15:53:59;;;;;;;0.90;0.90;;;;;;;21.43;36.97;99670.02;232833;1170;115788;-68
2021/05/09 15:59:03;;;;;;;0.93;0.93;;;;;;;21.39;37.47;99674.48;232240;1177;116059;-67
2021/05/09 16:04:07;;;;;;;1.45;1.20;;;;;;;21.30;37.34;99661.95;232453;1177;115177;-67
2021/05/09 16:09:11;;;;;;;1.75;1.30;;;;;;;21.19;37.49;99664.06;231967;1174;115636;-69
2021/05/09 16:14:15;;;;;;;1.93;1.33;;;;;;;21.08;37.97;99663.51;233093;1177;114946;-72
2021/05/09 16:19:19;;;;;;;1.43;1.33;;;;;;;20.99;37.31;99665.33;232589;1179;115867;-71
2021/05/09 16:24:23;;;;;;;0.85;0.85;;;;;;;20.88;37.38;99658.52;231781;1171;115577;-70
2021/05/09 16:29:27;;;;;;;1.27;0.80;;;;;;;20.78;37.58;99662.28;232584;1177;115348;-71
2021/05/09 16:34:30;;;;;;;1.70;1.18;;;;;;;20.74;37.93;99663.18;232005;1177;115593;-71
2021/05/09 16:39:33;;;;;;;0.80;0.80;;;;;;;20.68;38.07;99659.77;232701;1177;115685;-71
2021/05/09 16:44:36;;;;;;;0.60;0.50;;;;;;;20.58;38.48;99651.05;232836;1177;116272;-69
2021/05/09 16:49:40;;;;;;;1.95;1.28;;;;;;;20.48;38.80;99649.38;234194;1179;115388;-68
2021/05/09 16:54:44;;;;;;;1.55;1.40;;;;;;;20.42;38.68;99651.38;233534;1177;115522;-70
2021/05/09 16:59:48;;;;;;;0.90;0.88;;;;;;;20.31;39.41;99649.13;234504;1177;115645;-68
2021/05/09 17:04:51;;;;;;;1.10;0.95;;;;;;;20.19;39.29;99645.01;234629;1177;115108;-70
2021/05/09 17:09:55;;;;;;;1.07;0.90;;;;;;;20.07;39.30;99639.30;234095;1178;115932;-71
2021/05/09 17:14:58;;;;;;;1.40;1.30;;;;;;;19.94;39.48;99641.98;234491;1177;115394;-70
2021/05/09 17:20:01;;;;;;;1.25;1.05;;;;;;;19.78;39.86;99636.86;233095;1177;117679;-73
2021/05/09 17:25:07;;;;;;;1.43;1.33;;;;;;;19.64;40.25;99646.03;232450;1177;115716;-68
2021/05/09 17:30:12;;;;;;;7.05;1.65;;;;;;;19.48;40.12;99646.27;232433;1177;138614;-67
2021/05/09 17:35:17;;;;;;;1.23;1.13;;;;;;;19.34;40.56;99650.81;233117;1177;116025;-65
2021/05/09 17:40:24;;;;;;;1.27;1.10;;;;;;;19.15;40.95;99647.34;232796;1177;116077;-70
2021/05/09 17:45:27;;;;;;;1.68;1.50;;;;;;;18.96;40.99;99641.92;232145;1177;115656;-70
2021/05/09 17:50:31;;;;;;;2.60;1.90;;;;;;;18.74;41.58;99645.20;232005;1177;115678;-72
2021/05/09 17:55:34;;;;;;;3.43;2.00;;;;;;;18.52;41.90;99644.92;232329;1178;115196;-69
2021/05/09 18:00:37;;;;;;;1.77;1.63;;;;;;;18.30;42.74;99652.77;232021;1177;115410;-70
2021/05/09 18:05:40;;;;;;;2.25;1.90;;;;;;;18.11;43.36;99658.88;231906;1173;116229;-70
2021/05/09 18:10:44;;;;;;;2.37;2.10;;;;;;;17.91;43.71;99652.90;232566;1177;115901;-68
2021/05/09 18:26:14;;;;;;;3.50;2.30;;;;;;;17.33;44.75;99669.00;233100;1177;115519;-70
2021/05/09 18:31:18;;;;;;;2.28;2.00;;;;;;;17.06;45.75;99680.22;231875;1177;116010;-70
2021/05/09 18:36:22;;;;;;;2.57;2.13;;;;;;;16.68;47.04;99687.14;232046;1179;116289;-68
2021/05/09 18:41:26;;;;;;;8.97;2.50;;;;;;;16.39;47.67;99685.06;233601;1179;116397;-70
2021/05/09 18:46:30;;;;;;;2.33;2.13;;;;;;;16.14;48.33;99693.20;232458;1177;116848;-69
2021/05/09 18:51:33;;;;;;;5.00;2.40;;;;;;;15.92;48.98;99695.38;234266;1177;115967;-69
2021/05/09 18:56:36;;;;;;;4.65;3.20;;;;;;;15.67;49.79;99691.63;234324;1177;116926;-68
2021/05/09 19:01:47;;;;;;;4.23;2.57;;;;;;;15.41;50.50;99698.03;234657;1177;117254;-67
2021/05/09 19:06:55;;;;;;;5.25;2.75;;;;;;;15.09;51.16;99704.42;234470;1177;115963;-67
2021/05/09 19:12:00;;;;;;;2.68;2.48;;;;;;;14.89;51.64;99706.25;234465;1177;117647;-66
2021/05/09 19:17:03;;;;;;;3.60;3.03;;;;;;;14.57;52.31;99696.48;234541;1177;116837;-65
2021/05/09 19:22:08;;;;;;;6.55;4.30;;;;;;;14.27;52.89;99693.61;233814;1177;116316;-68
2021/05/09 19:27:12;;;;;;;6.57;4.10;;;;;;;14.11;53.54;99690.02;232992;1177;116042;-69
2021/05/09 19:32:18;;;;;;;4.03;3.10;;;;;;;13.86;53.65;99682.63;232980;1177;115272;-69
2021/05/09 19:37:23;;;;;;;4.70;4.05;;;;;;;13.64;54.13;99680.05;232202;1177;115527;-70
2021/05/09 19:42:26;;;;;;;7.05;4.90;;;;;;;13.52;55.06;99687.45;232780;1177;115403;-68
2021/05/09 19:47:39;;;;;;;6.80;5.50;;;;;;;13.41;55.11;99672.38;233163;1177;115389;-69
2021/05/09 19:52:42;;;;;;;5.40;3.33;;;;;;;13.39;55.16;99677.98;233177;1177;116376;-69
2021/05/09 19:57:45;;;;;;;3.37;3.07;;;;;;;13.53;54.95;99680.22;232651;1177;115515;-68
2021/05/09 20:02:49;;;;;;;4.37;2.60;;;;;;;13.70;55.19;99689.75;232348;1171;116082;-67
2021/05/09 20:07:53;;;;;;;4.80;2.80;;;;;;;13.73;54.73;99680.40;232579;1177;115717;-69
2021/05/09 20:12:56;;;;;;;3.57;2.83;;;;;;;13.74;54.55;99680.14;233037;1177;115294;-69
2021/05/09 20:17:59;;;;;;;5.30;4.57;;;;;;;13.78;54.24;99685.77;231977;1177;115687;-71
2021/05/09 20:23:03;;;;;;;3.07;2.80;;;;;;;13.72;54.91;99687.63;232594;1177;115855;-68
2021/05/09 20:28:06;;;;;;;2.95;2.65;;;;;;;13.52;54.77;99687.45;232633;1177;115515;-68
2021/05/09 20:33:08;;;;;;;5.57;4.20;;;;;;;13.36;55.13;99707.13;232419;1179;115981;-69
2021/05/09 20:38:11;;;;;;;6.70;3.30;;;;;;;13.26;55.11;99720.41;231996;1177;115237;-68
2021/05/09 20:43:14;;;;;;;4.50;3.40;;;;;;;13.14;55.83;99715.99;232882;1175;115629;-68
2021/05/09 20:48:17;;;;;;;5.25;3.43;;;;;;;12.96;56.21;99710.96;235091;1173;117284;-68
2021/05/09 20:53:21;;;;;;;5.80;3.30;;;;;;;12.81;56.68;99702.78;234098;1177;115915;-68
2021/05/09 20:58:27;;;;;;;12.53;4.67;;;;;;;12.70;56.99;99714.40;234363;1177;115915;-67
2021/05/09 21:03:32;;;;;;;4.50;4.10;;;;;;;12.62;56.80;99717.50;233183;1177;116169;-68
2021/05/09 21:08:35;;;;;;;5.80;3.87;;;;;;;12.54;57.23;99709.91;234587;1177;114828;-69
2021/05/09 21:13:38;;;;;;;6.40;4.15;;;;;;;12.51;57.22;99718.45;234586;1177;115367;-67
2021/05/09 21:18:41;;;;;;;5.13;4.18;;;;;;;12.54;57.23;99707.23;234490;1177;115248;-68
2021/05/09 21:23:44;;;;;;;9.50;4.30;;;;;;;12.53;57.08;99706.45;233008;1177;115854;-68
2021/05/09 21:28:48;;;;;;;5.73;4.55;;;;;;;12.46;57.52;99701.28;233285;1177;115942;-68
2021/05/09 21:33:50;;;;;;;10.05;5.45;;;;;;;12.38;57.13;99708.91;233301;1174;115572;-69
2021/05/09 21:38:53;;;;;;;8.68;4.80;;;;;;;12.33;57.85;99703.48;233146;1177;115417;-68
2021/05/09 21:44:00;;;;;;;8.93;4.73;;;;;;;12.31;57.69;99710.95;232330;1171;115714;-68
2021/05/09 21:49:04;;;;;;;9.75;4.63;;;;;;;12.26;57.86;99710.87;232234;1177;115618;-68
2021/05/09 21:54:07;;;;;;;9.60;5.17;;;;;;;12.19;58.12;99713.73;231908;1177;115928;-68
2021/05/09 21:59:11;;;;;;;9.00;4.50;;;;;;;12.12;58.11;99727.27;233010;1177;115134;-68
2021/05/09 22:04:14;;;;;;;7.40;4.50;;;;;;;12.08;58.17;99725.32;232957;1177;115579;-67
2021/05/09 22:09:16;;;;;;;7.60;4.20;;;;;;;12.03;58.10;99722.56;232635;1177;116039;-67
2021/05/09 22:14:19;;;;;;;5.23;4.70;;;;;;;11.96;58.28;99721.92;232644;1177;115366;-68
2021/05/09 22:19:22;;;;;;;5.60;4.00;;;;;;;11.87;58.39;99712.72;233239;1177;115494;-69
2021/05/09 22:24:26;;;;;;;4.77;3.33;;;;;;;11.86;58.72;99716.44;232341;1177;115980;-67
2021/05/09 22:29:28;;;;;;;4.78;3.80;;;;;;;11.83;58.51;99717.73;232744;1177;115785;-68
2021/05/09 22:34:31;;;;;;;2.70;2.37;;;;;;;11.80;58.15;99720.89;233142;1177;116054;-67
2021/05/09 22:39:35;;;;;;;4.10;3.73;;;;;;;11.72;58.72;99714.05;232998;1177;115918;-67
2021/05/09 22:44:40;;;;;;;8.25;5.63;;;;;;;11.64;58.77;99703.77;232121;1178;116973;-65
2021/05/09 22:49:47;;;;;;;4.03;3.63;;;;;;;11.55;58.88;99707.91;233638;1177;117757;-66
2021/05/09 22:54:51;;;;;;;4.40;3.65;;;;;;;11.48;59.07;99701.91;233995;1178;117526;-66
2021/05/09 22:59:55;;;;;;;6.77;3.20;;;;;;;11.45;59.02;99705.05;233447;1177;117061;-66
2021/05/09 23:04:58;;;;;;;5.93;3.30;;;;;;;11.41;58.84;99698.57;234493;1179;116431;-68
2021/05/09 23:10:03;;;;;;;3.58;2.40;;;;;;;11.42;58.42;99698.33;234502;1177;116004;-66
2021/05/09 23:15:07;;;;;;;4.90;2.93;;;;;;;11.46;58.80;99693.33;234446;1180;116657;-67
2021/05/09 23:20:37;;;;;;;2.97;2.60;;;;;;;11.48;58.59;99685.89;234431;1177;115847;-67
2021/05/09 23:25:41;;;;;;;2.75;2.15;;;;;;;11.51;58.47;99696.09;233805;1179;136792;-67
2021/05/09 23:30:45;;;;;;;3.55;2.68;;;;;;;11.54;58.55;99698.28;233657;1179;117954;-67
2021/05/09 23:35:48;;;;;;;3.13;2.83;;;;;;;11.56;58.84;99690.02;233213;1177;115329;-67